sensor_id;sensor_type;location;lat;lon;timestamp;pressure;altitude;pressure_sealevel;temperature;humidity
20394;BME280;10356;50.544;9.642;2022-10-17T00:02:26;98768.69;;;11.85;100.00
20394;BME280;10356;50.544;9.642;2022-10-17T00:04:52;98768.09;;;11.82;100.00
20394;BME280;10356;50.544;9.642;2022-10-17T00:07:19;98772.69;;;11.78;100.00
20394;BME280;10356;50.544;9.642;2022-10-17T00:09:45;98777.72;;;11.81;100.00
20394;BME280;10356;50.544;9.642;2022-10-17T00:12:12;98769.53;;;11.86;100.00
20394;BME280;10356;50.544;9.642;2022-10-17T00:14:38;98773.59;;;12.01;100.00
20394;BME280;10356;50.544;9.642;2022-10-17T00:17:06;98772.47;;;12.16;100.00
20394;BME280;10356;50.544;9.642;2022-10-17T00:19:33;98776.63;;;12.29;100.00
20394;BME280;10356;50.544;9.642;2022-10-17T00:21:59;98774.16;;;12.39;100.00
20394;BME280;10356;50.544;9.642;2022-10-17T00:24:25;98765.00;;;12.44;100.00
20394;BME280;10356;50.544;9.642;2022-10-17T00:26:52;98771.44;;;12.51;100.00
20394;BME280;10356;50.544;9.642;2022-10-17T00:29:18;98777.38;;;12.53;100.00
20394;BME280;10356;50.544;9.642;2022-10-17T00:31:45;98773.56;;;12.57;100.00
20394;BME280;10356;50.544;9.642;2022-10-17T00:34:13;98768.72;;;12.64;100.00
20394;BME280;10356;50.544;9.642;2022-10-17T00:36:39;98775.13;;;12.71;100.00
20394;BME280;10356;50.544;9.642;2022-10-17T00:39:06;98779.66;;;12.80;100.00
20394;BME280;10356;50.544;9.642;2022-10-17T00:41:32;98777.03;;;12.80;100.00
20394;BME280;10356;50.544;9.642;2022-10-17T00:44:01;98781.88;;;12.85;100.00
20394;BME280;10356;50.544;9.642;2022-10-17T00:46:31;98782.13;;;12.82;100.00
20394;BME280;10356;50.544;9.642;2022-10-17T00:49:01;98781.44;;;12.80;100.00
20394;BME280;10356;50.544;9.642;2022-10-17T00:51:33;98782.25;;;12.80;100.00
20394;BME280;10356;50.544;9.642;2022-10-17T00:54:03;98784.63;;;12.83;100.00
20394;BME280;10356;50.544;9.642;2022-10-17T00:56:30;98782.13;;;12.82;100.00
20394;BME280;10356;50.544;9.642;2022-10-17T00:58:57;98779.53;;;12.82;100.00
20394;BME280;10356;50.544;9.642;2022-10-17T01:01:24;98780.72;;;12.78;100.00
20394;BME280;10356;50.544;9.642;2022-10-17T01:03:51;98778.31;;;12.75;100.00
20394;BME280;10356;50.544;9.642;2022-10-17T01:06:17;98779.63;;;12.69;100.00
20394;BME280;10356;50.544;9.642;2022-10-17T01:08:45;98781.41;;;12.68;100.00
20394;BME280;10356;50.544;9.642;2022-10-17T01:11:23;98774.75;;;12.64;100.00
20394;BME280;10356;50.544;9.642;2022-10-17T01:13:58;98791.88;;;12.57;100.00
20394;BME280;10356;50.544;9.642;2022-10-17T01:16:33;98792.31;;;12.40;100.00
20394;BME280;10356;50.544;9.642;2022-10-17T01:19:20;98789.81;;;12.28;100.00
20394;BME280;10356;50.544;9.642;2022-10-17T01:21:58;98793.13;;;12.19;100.00
20394;BME280;10356;50.544;9.642;2022-10-17T01:24:40;98798.81;;;12.13;100.00
20394;BME280;10356;50.544;9.642;2022-10-17T01:27:48;98797.38;;;12.09;100.00
20394;BME280;10356;50.544;9.642;2022-10-17T01:30:56;98800.09;;;12.07;100.00
20394;BME280;10356;50.544;9.642;2022-10-17T01:33:32;98801.16;;;12.05;100.00
20394;BME280;10356;50.544;9.642;2022-10-17T01:36:07;98805.59;;;12.15;100.00
20394;BME280;10356;50.544;9.642;2022-10-17T01:38:38;98798.81;;;12.13;100.00
20394;BME280;10356;50.544;9.642;2022-10-17T01:41:14;98804.63;;;12.16;100.00
20394;BME280;10356;50.544;9.642;2022-10-17T01:43:47;98806.19;;;12.19;100.00
20394;BME280;10356;50.544;9.642;2022-10-17T01:46:21;98795.41;;;12.23;100.00
20394;BME280;10356;50.544;9.642;2022-10-17T01:48:51;98792.19;;;12.20;100.00
20394;BME280;10356;50.544;9.642;2022-10-17T01:51:22;98792.28;;;12.18;100.00
20394;BME280;10356;50.544;9.642;2022-10-17T01:53:54;98801.28;;;12.14;100.00
20394;BME280;10356;50.544;9.642;2022-10-17T01:56:24;98791.09;;;12.11;100.00
20394;BME280;10356;50.544;9.642;2022-10-17T01:58:55;98795.59;;;12.09;100.00
20394;BME280;10356;50.544;9.642;2022-10-17T02:01:25;98793.19;;;12.06;100.00
20394;BME280;10356;50.544;9.642;2022-10-17T02:03:55;98798.44;;;12.06;100.00
20394;BME280;10356;50.544;9.642;2022-10-17T02:06:22;98794.63;;;11.99;100.00
20394;BME280;10356;50.544;9.642;2022-10-17T02:08:50;98787.25;;;11.93;100.00
20394;BME280;10356;50.544;9.642;2022-10-17T02:11:18;98777.25;;;11.87;100.00
20394;BME280;10356;50.544;9.642;2022-10-17T02:14:06;98780.31;;;11.81;100.00
20394;BME280;10356;50.544;9.642;2022-10-17T02:16:42;98774.38;;;11.79;100.00
20394;BME280;10356;50.544;9.642;2022-10-17T02:19:28;98782.53;;;11.74;100.00
20394;BME280;10356;50.544;9.642;2022-10-17T02:22:05;98781.22;;;11.69;100.00
20394;BME280;10356;50.544;9.642;2022-10-17T02:24:41;98788.41;;;11.65;100.00
20394;BME280;10356;50.544;9.642;2022-10-17T02:27:13;98788.03;;;11.59;100.00
20394;BME280;10356;50.544;9.642;2022-10-17T02:29:45;98785.75;;;11.54;100.00
20394;BME280;10356;50.544;9.642;2022-10-17T02:32:17;98789.63;;;11.49;100.00
20394;BME280;10356;50.544;9.642;2022-10-17T02:34:48;98783.91;;;11.44;100.00
20394;BME280;10356;50.544;9.642;2022-10-17T02:37:18;98780.56;;;11.42;100.00
20394;BME280;10356;50.544;9.642;2022-10-17T02:39:47;98792.06;;;11.39;100.00
20394;BME280;10356;50.544;9.642;2022-10-17T02:42:16;98799.59;;;11.31;100.00
20394;BME280;10356;50.544;9.642;2022-10-17T02:44:44;98793.78;;;11.28;100.00
20394;BME280;10356;50.544;9.642;2022-10-17T02:47:17;98792.13;;;11.27;100.00
20394;BME280;10356;50.544;9.642;2022-10-17T02:49:49;98793.50;;;11.20;100.00
20394;BME280;10356;50.544;9.642;2022-10-17T02:52:20;98799.88;;;11.16;100.00
20394;BME280;10356;50.544;9.642;2022-10-17T02:54:51;98795.94;;;11.10;100.00
20394;BME280;10356;50.544;9.642;2022-10-17T02:57:23;98792.59;;;11.08;100.00
20394;BME280;10356;50.544;9.642;2022-10-17T02:59:53;98797.94;;;11.07;100.00
20394;BME280;10356;50.544;9.642;2022-10-17T03:02:22;98796.13;;;11.07;100.00
20394;BME280;10356;50.544;9.642;2022-10-17T03:04:48;98797.94;;;11.07;100.00
20394;BME280;10356;50.544;9.642;2022-10-17T03:07:15;98804.91;;;11.06;100.00
20394;BME280;10356;50.544;9.642;2022-10-17T03:09:41;98804.06;;;11.06;100.00
20394;BME280;10356;50.544;9.642;2022-10-17T03:12:08;98806.47;;;11.09;100.00
20394;BME280;10356;50.544;9.642;2022-10-17T03:14:34;98803.88;;;11.09;100.00
20394;BME280;10356;50.544;9.642;2022-10-17T03:17:01;98802.19;;;11.08;100.00
20394;BME280;10356;50.544;9.642;2022-10-17T03:19:29;98810.25;;;11.05;100.00
20394;BME280;10356;50.544;9.642;2022-10-17T03:21:55;98813.06;;;11.02;100.00
20394;BME280;10356;50.544;9.642;2022-10-17T03:24:22;98809.81;;;10.98;100.00
20394;BME280;10356;50.544;9.642;2022-10-17T03:26:48;98813.47;;;10.95;100.00
20394;BME280;10356;50.544;9.642;2022-10-17T03:29:14;98811.00;;;10.94;100.00
20394;BME280;10356;50.544;9.642;2022-10-17T03:31:41;98812.88;;;10.92;100.00
20394;BME280;10356;50.544;9.642;2022-10-17T03:34:07;98815.59;;;10.90;100.00
20394;BME280;10356;50.544;9.642;2022-10-17T03:36:35;98822.25;;;10.94;100.00
20394;BME280;10356;50.544;9.642;2022-10-17T03:39:02;98822.03;;;10.97;100.00
20394;BME280;10356;50.544;9.642;2022-10-17T03:41:28;98827.84;;;11.01;100.00
20394;BME280;10356;50.544;9.642;2022-10-17T03:43:55;98822.84;;;11.11;100.00
20394;BME280;10356;50.544;9.642;2022-10-17T03:46:21;98826.56;;;11.19;100.00
20394;BME280;10356;50.544;9.642;2022-10-17T03:48:48;98826.97;;;11.26;100.00
20394;BME280;10356;50.544;9.642;2022-10-17T03:51:14;98823.19;;;11.30;100.00
20394;BME280;10356;50.544;9.642;2022-10-17T03:53:42;98830.47;;;11.37;100.00
20394;BME280;10356;50.544;9.642;2022-10-17T03:56:09;98827.94;;;11.48;100.00
20394;BME280;10356;50.544;9.642;2022-10-17T03:58:36;98835.22;;;11.56;100.00
20394;BME280;10356;50.544;9.642;2022-10-17T04:01:04;98831.22;;;11.63;100.00
20394;BME280;10356;50.544;9.642;2022-10-17T04:03:31;98836.66;;;11.72;100.00
20394;BME280;10356;50.544;9.642;2022-10-17T04:05:58;98837.25;;;11.76;100.00
20394;BME280;10356;50.544;9.642;2022-10-17T04:08:24;98836.06;;;11.80;100.00
20394;BME280;10356;50.544;9.642;2022-10-17T04:10:57;98832.94;;;11.88;100.00
20394;BME280;10356;50.544;9.642;2022-10-17T04:13:23;98832.56;;;11.92;100.00
20394;BME280;10356;50.544;9.642;2022-10-17T04:15:53;98839.75;;;12.01;100.00
20394;BME280;10356;50.544;9.642;2022-10-17T04:18:20;98840.22;;;12.06;100.00
20394;BME280;10356;50.544;9.642;2022-10-17T04:20:47;98844.63;;;12.06;100.00
20394;BME280;10356;50.544;9.642;2022-10-17T04:23:13;98848.06;;;12.06;100.00
20394;BME280;10356;50.544;9.642;2022-10-17T04:25:40;98847.13;;;12.07;100.00
20394;BME280;10356;50.544;9.642;2022-10-17T04:28:08;98848.56;;;12.11;100.00
20394;BME280;10356;50.544;9.642;2022-10-17T04:30:34;98854.25;;;12.16;100.00
20394;BME280;10356;50.544;9.642;2022-10-17T04:33:01;98854.69;;;12.34;100.00
20394;BME280;10356;50.544;9.642;2022-10-17T04:35:28;98851.25;;;12.44;100.00
20394;BME280;10356;50.544;9.642;2022-10-17T04:37:54;98863.38;;;12.45;100.00
20394;BME280;10356;50.544;9.642;2022-10-17T04:40:21;98861.50;;;12.47;100.00
20394;BME280;10356;50.544;9.642;2022-10-17T04:42:48;98859.00;;;12.46;100.00
20394;BME280;10356;50.544;9.642;2022-10-17T04:45:16;98862.53;;;12.45;100.00
20394;BME280;10356;50.544;9.642;2022-10-17T04:47:42;98872.41;;;12.41;100.00
20394;BME280;10356;50.544;9.642;2022-10-17T04:50:09;98870.13;;;12.37;100.00
20394;BME280;10356;50.544;9.642;2022-10-17T04:52:35;98872.88;;;12.35;100.00
20394;BME280;10356;50.544;9.642;2022-10-17T04:55:02;98872.88;;;12.35;100.00
20394;BME280;10356;50.544;9.642;2022-10-17T04:57:29;98867.63;;;12.35;100.00
20394;BME280;10356;50.544;9.642;2022-10-17T04:59:55;98865.25;;;12.32;100.00
20394;BME280;10356;50.544;9.642;2022-10-17T05:02:23;98868.94;;;12.30;100.00
20394;BME280;10356;50.544;9.642;2022-10-17T05:04:50;98868.09;;;12.29;100.00
20394;BME280;10356;50.544;9.642;2022-10-17T05:07:16;98865.81;;;12.25;100.00
20394;BME280;10356;50.544;9.642;2022-10-17T05:09:42;98867.38;;;12.27;100.00
20394;BME280;10356;50.544;9.642;2022-10-17T05:12:09;98868.81;;;12.31;100.00
20394;BME280;10356;50.544;9.642;2022-10-17T05:14:35;98863.59;;;12.31;100.00
20394;BME280;10356;50.544;9.642;2022-10-17T05:17:02;98870.38;;;12.34;100.00
20394;BME280;10356;50.544;9.642;2022-10-17T05:19:30;98860.97;;;12.31;100.00
20394;BME280;10356;50.544;9.642;2022-10-17T05:21:56;98863.72;;;12.30;100.00
20394;BME280;10356;50.544;9.642;2022-10-17T05:24:23;98860.00;;;12.32;100.00
20394;BME280;10356;50.544;9.642;2022-10-17T05:26:49;98865.25;;;12.32;100.00
20394;BME280;10356;50.544;9.642;2022-10-17T05:29:16;98861.91;;;12.30;100.00
20394;BME280;10356;50.544;9.642;2022-10-17T05:31:43;98866.34;;;12.41;100.00
20394;BME280;10356;50.544;9.642;2022-10-17T05:34:09;98867.78;;;12.45;100.00
20394;BME280;10356;50.544;9.642;2022-10-17T05:36:37;98881.34;;;12.50;100.00
20394;BME280;10356;50.544;9.642;2022-10-17T05:39:03;98878.09;;;12.46;100.00
20394;BME280;10356;50.544;9.642;2022-10-17T05:41:30;98881.69;;;12.45;100.00
20394;BME280;10356;50.544;9.642;2022-10-17T05:43:56;98889.53;;;12.45;100.00
20394;BME280;10356;50.544;9.642;2022-10-17T05:46:23;98894.75;;;12.45;100.00
20394;BME280;10356;50.544;9.642;2022-10-17T05:48:50;98902.47;;;12.47;100.00
20394;BME280;10356;50.544;9.642;2022-10-17T05:51:16;98894.97;;;12.42;100.00
20394;BME280;10356;50.544;9.642;2022-10-17T05:53:44;98897.69;;;12.41;100.00
20394;BME280;10356;50.544;9.642;2022-10-17T05:56:11;98895.94;;;12.41;100.00
20394;BME280;10356;50.544;9.642;2022-10-17T05:58:39;98900.66;;;12.36;100.00
20394;BME280;10356;50.544;9.642;2022-10-17T06:01:06;98894.97;;;12.42;100.00
20394;BME280;10356;50.544;9.642;2022-10-17T06:03:33;98893.53;;;12.38;100.00
20394;BME280;10356;50.544;9.642;2022-10-17T06:06:03;98888.31;;;12.38;100.00
20394;BME280;10356;50.544;9.642;2022-10-17T06:08:29;98878.69;;;12.39;100.00
20394;BME280;10356;50.544;9.642;2022-10-17T06:10:57;98873.47;;;12.39;100.00
20394;BME280;10356;50.544;9.642;2022-10-17T06:13:24;98883.19;;;12.37;100.00
20394;BME280;10356;50.544;9.642;2022-10-17T06:15:50;98887.63;;;12.47;100.00
20394;BME280;10356;50.544;9.642;2022-10-17T06:18:17;98894.50;;;12.48;100.00
20394;BME280;10356;50.544;9.642;2022-10-17T06:20:43;98888.09;;;12.52;100.00
20394;BME280;10356;50.544;9.642;2022-10-17T06:23:09;98901.88;;;12.54;100.00
20394;BME280;10356;50.544;9.642;2022-10-17T06:25:36;98913.09;;;12.68;100.00
20394;BME280;10356;50.544;9.642;2022-10-17T06:28:04;98909.56;;;12.80;100.00
20394;BME280;10356;50.544;9.642;2022-10-17T06:30:31;98917.16;;;12.83;100.00
20394;BME280;10356;50.544;9.642;2022-10-17T06:32:57;98914.72;;;12.92;100.00
20394;BME280;10356;50.544;9.642;2022-10-17T06:35:24;98913.88;;;12.92;100.00
20394;BME280;10356;50.544;9.642;2022-10-17T06:37:50;98924.09;;;12.95;100.00
20394;BME280;10356;50.544;9.642;2022-10-17T06:40:17;98924.09;;;12.95;100.00
20394;BME280;10356;50.544;9.642;2022-10-17T06:42:43;98935.38;;;12.95;100.00
20394;BME280;10356;50.544;9.642;2022-10-17T06:45:11;98923.97;;;12.96;100.00
20394;BME280;10356;50.544;9.642;2022-10-17T06:47:38;98925.88;;;12.94;100.00
20394;BME280;10356;50.544;9.642;2022-10-17T06:50:05;98948.13;;;13.00;100.00
20394;BME280;10356;50.544;9.642;2022-10-17T06:52:31;98952.91;;;13.06;100.00
20394;BME280;10356;50.544;9.642;2022-10-17T06:54:58;98961.25;;;13.11;100.00
20394;BME280;10356;50.544;9.642;2022-10-17T06:57:24;98953.88;;;13.16;100.00
20394;BME280;10356;50.544;9.642;2022-10-17T06:59:51;98946.41;;;13.22;100.00
20394;BME280;10356;50.544;9.642;2022-10-17T07:02:19;98947.00;;;13.26;100.00
20394;BME280;10356;50.544;9.642;2022-10-17T07:04:47;98954.25;;;13.33;100.00
20394;BME280;10356;50.544;9.642;2022-10-17T07:07:14;98954.59;;;13.40;100.00
20394;BME280;10356;50.544;9.642;2022-10-17T07:09:40;98962.56;;;13.49;100.00
20394;BME280;10356;50.544;9.642;2022-10-17T07:12:07;98956.63;;;13.59;100.00
20394;BME280;10356;50.544;9.642;2022-10-17T07:14:34;98961.03;;;13.69;100.00
20394;BME280;10356;50.544;9.642;2022-10-17T07:17:01;98954.22;;;13.78;100.00
20394;BME280;10356;50.544;9.642;2022-10-17T07:19:28;98955.84;;;13.90;100.00
20394;BME280;10356;50.544;9.642;2022-10-17T07:21:55;98961.22;;;13.99;100.00
20394;BME280;10356;50.544;9.642;2022-10-17T07:24:21;98959.75;;;14.06;100.00
20394;BME280;10356;50.544;9.642;2022-10-17T07:26:48;98965.34;;;14.13;100.00
20394;BME280;10356;50.544;9.642;2022-10-17T07:29:14;98968.31;;;14.19;100.00
20394;BME280;10356;50.544;9.642;2022-10-17T07:31:41;98967.34;;;14.32;100.00
20394;BME280;10356;50.544;9.642;2022-10-17T07:34:09;98975.88;;;14.45;100.00
20394;BME280;10356;50.544;9.642;2022-10-17T07:36:37;98979.91;;;14.49;100.00
20394;BME280;10356;50.544;9.642;2022-10-17T07:39:04;98973.94;;;14.58;100.00
20394;BME280;10356;50.544;9.642;2022-10-17T07:41:30;98976.75;;;14.66;100.00
20394;BME280;10356;50.544;9.642;2022-10-17T07:43:56;98980.16;;;14.77;100.00
20394;BME280;10356;50.544;9.642;2022-10-17T07:46:23;98974.97;;;14.87;100.00
20394;BME280;10356;50.544;9.642;2022-10-17T07:48:49;98970.59;;;14.97;100.00
20394;BME280;10356;50.544;9.642;2022-10-17T07:51:16;98973.59;;;15.13;100.00
20394;BME280;10356;50.544;9.642;2022-10-17T07:53:45;98972.47;;;15.27;100.00
20394;BME280;10356;50.544;9.642;2022-10-17T07:56:12;98976.38;;;15.42;100.00
20394;BME280;10356;50.544;9.642;2022-10-17T07:58:39;98974.84;;;15.60;100.00
20394;BME280;10356;50.544;9.642;2022-10-17T08:01:07;98973.78;;;15.72;100.00
20394;BME280;10356;50.544;9.642;2022-10-17T08:03:35;98981.88;;;15.89;100.00
20394;BME280;10356;50.544;9.642;2022-10-17T08:06:02;98969.75;;;16.08;100.00
20394;BME280;10356;50.544;9.642;2022-10-17T08:08:29;98969.47;;;16.20;100.00
20394;BME280;10356;50.544;9.642;2022-10-17T08:11:01;98978.09;;;16.32;100.00
20394;BME280;10356;50.544;9.642;2022-10-17T08:13:28;98975.06;;;16.46;100.00
20394;BME280;10356;50.544;9.642;2022-10-17T08:15:58;98986.84;;;16.61;100.00
20394;BME280;10356;50.544;9.642;2022-10-17T08:18:24;98980.47;;;16.73;100.00
20394;BME280;10356;50.544;9.642;2022-10-17T08:20:51;98978.66;;;16.83;100.00
20394;BME280;10356;50.544;9.642;2022-10-17T08:23:17;98979.34;;;16.85;100.00
20394;BME280;10356;50.544;9.642;2022-10-17T08:25:44;98973.25;;;16.94;100.00
20394;BME280;10356;50.544;9.642;2022-10-17T08:28:11;98976.16;;;17.01;100.00
20394;BME280;10356;50.544;9.642;2022-10-17T08:30:38;98980.88;;;17.07;100.00
20394;BME280;10356;50.544;9.642;2022-10-17T08:33:04;98977.91;;;17.19;100.00
20394;BME280;10356;50.544;9.642;2022-10-17T08:35:31;98988.00;;;17.33;100.00
20394;BME280;10356;50.544;9.642;2022-10-17T08:37:57;98972.72;;;17.46;100.00
20394;BME280;10356;50.544;9.642;2022-10-17T08:40:27;98972.13;;;17.62;100.00
20394;BME280;10356;50.544;9.642;2022-10-17T08:43:23;98971.63;;;17.76;100.00
20394;BME280;10356;50.544;9.642;2022-10-17T08:45:56;98971.97;;;17.91;100.00
20394;BME280;10356;50.544;9.642;2022-10-17T08:48:26;98956.94;;;18.01;100.00
20394;BME280;10356;50.544;9.642;2022-10-17T08:50:55;98961.78;;;18.23;100.00
20394;BME280;10356;50.544;9.642;2022-10-17T08:53:28;98966.47;;;18.29;100.00
20394;BME280;10356;50.544;9.642;2022-10-17T08:55:57;98961.66;;;18.42;100.00
20394;BME280;10356;50.544;9.642;2022-10-17T08:58:33;98955.50;;;18.51;98.51
20394;BME280;10356;50.544;9.642;2022-10-17T09:01:05;98956.75;;;18.65;98.03
20394;BME280;10356;50.544;9.642;2022-10-17T09:03:42;98946.66;;;18.78;98.11
20394;BME280;10356;50.544;9.642;2022-10-17T09:06:18;98950.19;;;18.86;99.15
20394;BME280;10356;50.544;9.642;2022-10-17T09:08:58;98950.31;;;19.02;95.01
20394;BME280;10356;50.544;9.642;2022-10-17T09:11:44;98952.22;;;19.18;97.14
20394;BME280;10356;50.544;9.642;2022-10-17T09:14:27;98948.06;;;19.33;97.42
20394;BME280;10356;50.544;9.642;2022-10-17T09:17:07;98949.59;;;19.44;95.27
20394;BME280;10356;50.544;9.642;2022-10-17T09:19:39;98947.56;;;19.63;92.13
20394;BME280;10356;50.544;9.642;2022-10-17T09:22:11;98938.22;;;19.85;91.93
20394;BME280;10356;50.544;9.642;2022-10-17T09:24:42;98950.19;;;20.05;90.44
20394;BME280;10356;50.544;9.642;2022-10-17T09:27:19;98949.91;;;20.24;89.13
20394;BME280;10356;50.544;9.642;2022-10-17T09:29:51;98950.44;;;20.36;85.01
20394;BME280;10356;50.544;9.642;2022-10-17T09:32:22;98948.59;;;20.36;83.19
20394;BME280;10356;50.544;9.642;2022-10-17T09:34:50;98948.59;;;20.36;84.85
20394;BME280;10356;50.544;9.642;2022-10-17T09:37:18;98951.91;;;20.38;82.45
20394;BME280;10356;50.544;9.642;2022-10-17T09:39:45;98945.00;;;20.53;84.11
20394;BME280;10356;50.544;9.642;2022-10-17T09:42:13;98955.25;;;20.56;81.63
20394;BME280;10356;50.544;9.642;2022-10-17T09:44:46;98951.97;;;20.62;79.96
20394;BME280;10356;50.544;9.642;2022-10-17T09:47:24;98953.97;;;20.68;79.40
20394;BME280;10356;50.544;9.642;2022-10-17T09:49:53;98964.56;;;20.68;77.83
20394;BME280;10356;50.544;9.642;2022-10-17T09:52:21;98964.88;;;20.81;79.74
20394;BME280;10356;50.544;9.642;2022-10-17T09:54:53;98966.56;;;20.82;78.30
20394;BME280;10356;50.544;9.642;2022-10-17T09:57:21;98968.19;;;20.91;78.04
20394;BME280;10356;50.544;9.642;2022-10-17T09:59:56;98969.00;;;21.00;78.15
20394;BME280;10356;50.544;9.642;2022-10-17T10:02:26;98969.69;;;21.10;77.67
20394;BME280;10356;50.544;9.642;2022-10-17T10:05:03;98979.44;;;21.26;75.66
20394;BME280;10356;50.544;9.642;2022-10-17T10:07:31;98988.03;;;21.44;74.83
20394;BME280;10356;50.544;9.642;2022-10-17T10:09:59;98984.03;;;21.48;75.49
20394;BME280;10356;50.544;9.642;2022-10-17T10:12:29;98983.06;;;21.41;72.99
20394;BME280;10356;50.544;9.642;2022-10-17T10:14:55;98983.38;;;21.46;73.89
20394;BME280;10356;50.544;9.642;2022-10-17T10:17:45;98986.38;;;21.51;72.88
20394;BME280;10356;50.544;9.642;2022-10-17T10:20:27;98978.03;;;21.62;73.24
20394;BME280;10356;50.544;9.642;2022-10-17T10:23:09;98981.03;;;21.59;74.21
20394;BME280;10356;50.544;9.642;2022-10-17T10:25:36;98989.94;;;21.74;73.11
20394;BME280;10356;50.544;9.642;2022-10-17T10:28:09;98990.06;;;21.97;73.46
20394;BME280;10356;50.544;9.642;2022-10-17T10:30:36;98985.41;;;21.99;71.15
20394;BME280;10356;50.544;9.642;2022-10-17T10:33:04;98980.78;;;22.23;70.88
20394;BME280;10356;50.544;9.642;2022-10-17T10:35:32;98986.00;;;22.39;71.06
20394;BME280;10356;50.544;9.642;2022-10-17T10:38:01;98985.69;;;22.65;68.93
20394;BME280;10356;50.544;9.642;2022-10-17T10:40:30;98986.75;;;22.56;69.40
20394;BME280;10356;50.544;9.642;2022-10-17T10:42:59;98984.19;;;22.40;68.97
20394;BME280;10356;50.544;9.642;2022-10-17T10:45:38;98990.06;;;22.81;67.69
20394;BME280;10356;50.544;9.642;2022-10-17T10:48:17;98994.31;;;22.90;66.69
20394;BME280;10356;50.544;9.642;2022-10-17T10:50:47;98998.34;;;22.86;67.27
20394;BME280;10356;50.544;9.642;2022-10-17T10:53:27;98999.00;;;22.88;66.01
20394;BME280;10356;50.544;9.642;2022-10-17T10:55:57;98987.97;;;22.91;65.56
20394;BME280;10356;50.544;9.642;2022-10-17T10:58:32;98988.59;;;23.15;65.35
20394;BME280;10356;50.544;9.642;2022-10-17T11:01:04;98977.84;;;23.09;66.27
20394;BME280;10356;50.544;9.642;2022-10-17T11:03:34;98979.09;;;23.21;66.77
20394;BME280;10356;50.544;9.642;2022-10-17T11:06:08;98982.31;;;23.31;66.41
20394;BME280;10356;50.544;9.642;2022-10-17T11:08:39;98983.91;;;23.40;64.85
20394;BME280;10356;50.544;9.642;2022-10-17T11:11:13;98978.81;;;23.16;66.25
20394;BME280;10356;50.544;9.642;2022-10-17T11:13:47;98982.44;;;23.38;63.69
20394;BME280;10356;50.544;9.642;2022-10-17T11:16:24;98981.19;;;23.63;63.76
20394;BME280;10356;50.544;9.642;2022-10-17T11:18:59;98979.44;;;23.41;63.05
20394;BME280;10356;50.544;9.642;2022-10-17T11:21:36;98987.25;;;23.71;63.24
20394;BME280;10356;50.544;9.642;2022-10-17T11:24:09;98988.25;;;23.70;62.17
20394;BME280;10356;50.544;9.642;2022-10-17T11:26:42;98985.66;;;23.62;60.17
20394;BME280;10356;50.544;9.642;2022-10-17T11:29:11;98985.66;;;23.62;62.15
20394;BME280;10356;50.544;9.642;2022-10-17T11:31:40;98987.88;;;23.44;62.58
20394;BME280;10356;50.544;9.642;2022-10-17T11:34:13;98982.00;;;23.63;62.38
20394;BME280;10356;50.544;9.642;2022-10-17T11:36:45;98989.16;;;23.77;62.61
20394;BME280;10356;50.544;9.642;2022-10-17T11:39:17;98992.09;;;23.82;62.05
20394;BME280;10356;50.544;9.642;2022-10-17T11:41:47;98986.22;;;23.72;61.34
20394;BME280;10356;50.544;9.642;2022-10-17T11:44:20;98985.19;;;23.88;60.94
20394;BME280;10356;50.544;9.642;2022-10-17T11:46:49;98991.75;;;23.85;60.71
20394;BME280;10356;50.544;9.642;2022-10-17T11:49:21;98990.63;;;23.94;60.63
20394;BME280;10356;50.544;9.642;2022-10-17T11:51:53;98998.50;;;24.02;59.41
20394;BME280;10356;50.544;9.642;2022-10-17T11:54:23;98987.16;;;23.79;60.41
20394;BME280;10356;50.544;9.642;2022-10-17T11:57:02;98993.22;;;23.73;59.98
20394;BME280;10356;50.544;9.642;2022-10-17T11:59:47;98997.59;;;23.66;61.06
20394;BME280;10356;50.544;9.642;2022-10-17T12:02:26;98998.88;;;23.99;60.17
20394;BME280;10356;50.544;9.642;2022-10-17T12:05:02;99002.38;;;24.14;59.60
20394;BME280;10356;50.544;9.642;2022-10-17T12:07:36;99005.22;;;24.28;59.47
20394;BME280;10356;50.544;9.642;2022-10-17T12:10:18;99011.69;;;24.40;58.99
20394;BME280;10356;50.544;9.642;2022-10-17T12:12:47;99011.63;;;24.18;58.52
20394;BME280;10356;50.544;9.642;2022-10-17T12:15:28;98998.59;;;23.80;61.48
20394;BME280;10356;50.544;9.642;2022-10-17T12:17:56;99002.94;;;23.95;61.75
20394;BME280;10356;50.544;9.642;2022-10-17T12:20:29;99005.41;;;23.97;60.61
20394;BME280;10356;50.544;9.642;2022-10-17T12:23:04;98997.41;;;23.82;60.69
20394;BME280;10356;50.544;9.642;2022-10-17T12:25:33;98998.69;;;23.86;61.61
20394;BME280;10356;50.544;9.642;2022-10-17T12:28:12;98997.66;;;24.02;61.23
20394;BME280;10356;50.544;9.642;2022-10-17T12:30:49;99001.53;;;24.14;61.17
20394;BME280;10356;50.544;9.642;2022-10-17T12:33:18;98992.25;;;24.25;61.37
20394;BME280;10356;50.544;9.642;2022-10-17T12:35:49;98994.88;;;24.03;60.97
20394;BME280;10356;50.544;9.642;2022-10-17T12:38:24;98986.13;;;23.80;62.65
20394;BME280;10356;50.544;9.642;2022-10-17T12:40:54;98986.31;;;23.79;63.67
20394;BME280;10356;50.544;9.642;2022-10-17T12:43:48;98995.41;;;23.84;62.94
20394;BME280;10356;50.544;9.642;2022-10-17T12:46:41;98996.50;;;24.04;61.82
20394;BME280;10356;50.544;9.642;2022-10-17T12:49:22;98993.00;;;24.18;59.68
20394;BME280;10356;50.544;9.642;2022-10-17T12:55:11;98994.56;;;24.49;61.06
20394;BME280;10356;50.544;9.642;2022-10-17T12:57:47;98996.00;;;24.66;60.46
20394;BME280;10356;50.544;9.642;2022-10-17T13:00:19;98992.56;;;24.72;58.88
20394;BME280;10356;50.544;9.642;2022-10-17T13:02:47;98991.97;;;24.55;61.35
20394;BME280;10356;50.544;9.642;2022-10-17T13:05:18;98999.66;;;24.65;61.11
20394;BME280;10356;50.544;9.642;2022-10-17T13:07:48;99007.41;;;24.60;60.34
20394;BME280;10356;50.544;9.642;2022-10-17T13:10:20;99002.31;;;24.65;60.46
20394;BME280;10356;50.544;9.642;2022-10-17T13:12:48;98995.22;;;24.72;61.76